createdAt,value
2019-05-14T00:02:42.026Z,102990.86
2019-05-14T00:07:48.720Z,102987.88
2019-05-14T00:12:53.915Z,102987.88
2019-05-14T00:18:01.182Z,102989.30
2019-05-14T00:23:07.154Z,102992.17
2019-05-14T00:28:12.496Z,102986.41
2019-05-14T00:33:17.858Z,102997.20
2019-05-14T00:38:23.418Z,103003.98
2019-05-14T00:43:28.646Z,103003.98
2019-05-14T00:48:34.350Z,103008.69
2019-05-14T00:53:41.963Z,103007.00
2019-05-14T00:58:47.424Z,103007.54
2019-05-14T01:03:52.760Z,103007.02
2019-05-14T01:08:58.338Z,103009.19
2019-05-14T01:14:04.007Z,103006.00
2019-05-14T01:19:09.248Z,103005.14
2019-05-14T01:24:14.643Z,103001.53
2019-05-14T01:29:21.948Z,103005.95
2019-05-14T01:34:27.509Z,103008.70
2019-05-14T01:39:33.157Z,102996.85
2019-05-14T01:44:38.544Z,103003.78
2019-05-14T01:49:43.794Z,103007.44
2019-05-14T01:54:51.416Z,103008.84
2019-05-14T01:59:56.434Z,103014.31
2019-05-14T02:05:02.156Z,103014.41
2019-05-14T02:10:08.964Z,103014.91
2019-05-14T02:15:15.904Z,103014.61
2019-05-14T02:20:21.690Z,103013.31
2019-05-14T02:25:27.730Z,103007.10
2019-05-14T02:30:48.138Z,103016.63
2019-05-14T02:35:40.544Z,103018.27
2019-05-14T02:40:49.109Z,103022.26
2019-05-14T02:46:09.023Z,103026.28
2019-05-14T02:51:01.330Z,103020.50
2019-05-14T02:56:10.060Z,103026.42
2019-05-14T03:01:13.702Z,103022.91
2019-05-14T03:06:20.066Z,103026.36
2019-05-14T03:11:29.426Z,103022.64
2019-05-14T03:16:35.778Z,103022.16
2019-05-14T03:21:40.511Z,103031.91
2019-05-14T03:26:45.880Z,103030.43
2019-05-14T03:31:53.186Z,103028.84
2019-05-14T03:37:03.315Z,103030.81
2019-05-14T03:42:09.220Z,103028.64
2019-05-14T03:47:13.747Z,103047.58
2019-05-14T03:52:20.034Z,103053.45
2019-05-14T03:57:28.951Z,103051.86
2019-05-14T04:02:33.408Z,103061.09
2019-05-14T04:07:40.108Z,103060.50
2019-05-14T04:12:49.393Z,103064.64
2019-05-14T04:17:59.561Z,103065.75
2019-05-14T04:23:09.382Z,103061.67
2019-05-14T04:28:19.385Z,103057.21
2019-05-14T04:33:30.318Z,103065.24
2019-05-14T04:38:33.961Z,103067.86
2019-05-14T04:43:40.249Z,103066.36
2019-05-14T04:48:50.509Z,103057.42
2019-05-14T04:53:54.758Z,103056.59
2019-05-14T04:59:00.213Z,103067.27
2019-05-14T05:04:05.397Z,103063.96
2019-05-14T05:09:10.843Z,103070.02
2019-05-14T05:14:19.041Z,103077.52
2019-05-14T05:19:23.398Z,103083.31
2019-05-14T05:24:28.940Z,103088.75
2019-05-14T05:29:34.417Z,103087.70
2019-05-14T05:34:39.969Z,103100.34
2019-05-14T05:39:45.345Z,103100.09
2019-05-14T05:44:50.819Z,103094.90
2019-05-14T05:49:58.142Z,103101.06
2019-05-14T05:55:03.457Z,103108.04
2019-05-14T06:00:10.999Z,103111.08
2019-05-14T06:05:18.553Z,103115.50
2019-05-14T06:10:23.425Z,103108.19
2019-05-14T06:15:44.190Z,103116.11
2019-05-14T06:20:38.515Z,103108.64
2019-05-14T06:25:43.182Z,103133.55
2019-05-14T06:30:48.626Z,103127.91
2019-05-14T06:35:53.853Z,103119.38
2019-05-14T06:40:59.534Z,103119.38
2019-05-14T06:46:05.251Z,103126.03
2019-05-14T06:51:10.458Z,103125.27
2019-05-14T06:56:18.849Z,103127.27
2019-05-14T07:01:22.648Z,103128.02
2019-05-14T07:06:29.033Z,103122.66
2019-05-14T07:11:34.703Z,103119.14
2019-05-14T07:16:40.207Z,103142.58
2019-05-14T07:21:48.957Z,103139.79
2019-05-14T07:26:53.255Z,103143.84
2019-05-14T07:31:58.797Z,103140.89
2019-05-14T07:37:04.201Z,103151.69
2019-05-14T07:42:10.121Z,103133.61
2019-05-14T07:47:18.444Z,103151.76
2019-05-14T07:52:23.217Z,103137.33
2019-05-14T07:57:28.689Z,103140.52
2019-05-14T08:02:34.978Z,103133.44
2019-05-14T08:07:40.403Z,103130.88
2019-05-14T08:12:45.760Z,103132.83
2019-05-14T08:17:51.473Z,103132.66
2019-05-14T08:22:58.214Z,103110.67
2019-05-14T08:28:03.691Z,103104.76
2019-05-14T08:33:09.756Z,103110.97
2019-05-14T08:38:15.214Z,103111.84
2019-05-14T08:43:20.502Z,103101.96
2019-05-14T08:48:25.857Z,103096.50
2019-05-14T08:53:31.441Z,103089.61
2019-05-14T08:58:38.478Z,103093.32
2019-05-14T09:03:44.079Z,103086.31
2019-05-14T09:08:49.974Z,103096.66
2019-05-14T09:13:55.616Z,103090.41
2019-05-14T09:19:01.499Z,103088.09
2019-05-14T09:24:09.396Z,103093.86
2019-05-14T09:29:22.147Z,103097.75
2019-05-14T09:34:21.129Z,103085.73
2019-05-14T09:39:26.284Z,103096.57
2019-05-14T09:44:34.524Z,103093.55
2019-05-14T09:49:40.399Z,103092.24
2019-05-14T09:54:45.556Z,103089.84
2019-05-14T09:59:50.892Z,103090.23
2019-05-14T10:04:56.146Z,103083.83
2019-05-14T10:10:01.425Z,103080.00
2019-05-14T10:15:09.030Z,103081.81
2019-05-14T10:20:32.192Z,103078.81
2019-05-14T10:25:22.804Z,103079.52
2019-05-14T10:30:28.658Z,103081.88
2019-05-14T10:35:34.504Z,103080.40
2019-05-14T10:40:39.914Z,103068.88
2019-05-14T10:45:45.403Z,103063.19
2019-05-14T10:50:59.935Z,103057.98
2019-05-14T10:55:58.362Z,103053.52
2019-05-14T11:01:03.814Z,103047.09
2019-05-14T11:06:11.628Z,103051.57
2019-05-14T11:11:18.517Z,103041.41
2019-05-14T11:16:23.449Z,103033.31
2019-05-14T11:21:30.216Z,103034.95
2019-05-14T11:26:35.660Z,103022.22
2019-05-14T11:31:41.133Z,103019.67
2019-05-14T11:36:49.726Z,103010.25
2019-05-14T11:41:54.758Z,103025.02
2019-05-14T11:47:02.683Z,103025.41
2019-05-14T11:52:11.509Z,103022.03
2019-05-14T11:57:14.727Z,103022.03
2019-05-14T12:02:19.800Z,103013.90
2019-05-14T12:07:24.917Z,103007.65
2019-05-14T12:12:30.394Z,103017.08
2019-05-14T12:17:38.963Z,103014.39
2019-05-14T12:22:42.889Z,102995.40
2019-05-14T12:27:49.530Z,103004.30
2019-05-14T12:32:55.156Z,102997.89
2019-05-14T12:38:00.525Z,103006.05
2019-05-14T12:43:05.925Z,102988.11
2019-05-14T12:48:11.402Z,102981.12
2019-05-14T12:53:19.706Z,102982.95
2019-05-14T12:58:24.069Z,102981.35
2019-05-14T13:03:29.425Z,102970.42
2019-05-14T13:08:35.174Z,102953.53
2019-05-14T13:13:42.888Z,102941.11
2019-05-14T13:18:49.838Z,102945.92
2019-05-14T13:23:54.572Z,102938.91
2019-05-14T13:28:59.838Z,102937.21
2019-05-14T13:34:05.133Z,102950.12
2019-05-14T13:39:10.687Z,102936.50
2019-05-14T13:44:24.200Z,102926.84
2019-05-14T13:49:23.371Z,102919.95
2019-05-14T13:54:31.648Z,102908.95
2019-05-14T13:59:43.766Z,102919.80
2019-05-14T14:04:43.545Z,102913.64
2019-05-14T14:09:49.825Z,102913.64
2019-05-14T14:14:58.117Z,102893.25
2019-05-14T14:20:02.559Z,102894.77
2019-05-14T14:25:09.255Z,102890.63
2019-05-14T14:30:15.160Z,102882.20
2019-05-14T14:35:23.577Z,102888.28
2019-05-14T14:40:30.078Z,102888.30
2019-05-14T14:45:34.482Z,102894.20
2019-05-14T14:50:39.766Z,102874.28
2019-05-14T14:55:45.110Z,102876.02
2019-05-14T15:00:50.232Z,102877.79
2019-05-14T15:05:55.453Z,102873.73
2019-05-14T15:11:01.216Z,102875.16
2019-05-14T15:16:12.727Z,102868.95
2019-05-14T15:21:13.837Z,102863.02
2019-05-14T15:26:19.505Z,102867.34
2019-05-14T15:31:24.811Z,102856.57
2019-05-14T15:36:30.269Z,102852.53
2019-05-14T15:41:39.123Z,102853.22
2019-05-14T15:46:43.066Z,102851.66
2019-05-14T15:51:48.392Z,102839.92
2019-05-14T15:56:54.090Z,102847.41
2019-05-14T16:01:59.202Z,102837.60
2019-05-14T16:07:05.661Z,102832.99
2019-05-14T16:12:11.222Z,102838.09
2019-05-14T16:17:23.586Z,102845.39
2019-05-14T16:22:23.900Z,102838.94
2019-05-14T16:27:29.983Z,102828.58
2019-05-14T16:32:35.445Z,102818.14
2019-05-14T16:37:40.918Z,102829.53
2019-05-14T16:42:48.451Z,102812.58
2019-05-14T16:47:53.411Z,102805.91
2019-05-14T16:52:59.059Z,102809.24
2019-05-14T16:58:04.801Z,102807.23
2019-05-14T17:03:10.484Z,102818.00
2019-05-14T17:08:18.805Z,102823.05
2019-05-14T17:13:23.040Z,102808.81
2019-05-14T17:18:28.768Z,102810.45
2019-05-14T17:23:34.256Z,102805.59
2019-05-14T17:28:40.419Z,102812.63
2019-05-14T17:33:46.185Z,102805.07
2019-05-14T17:38:51.445Z,102804.00
2019-05-14T17:43:58.616Z,102807.09
2019-05-14T17:49:04.568Z,102810.20
2019-05-14T17:54:10.175Z,102817.11
2019-05-14T17:59:18.731Z,102809.63
2019-05-14T18:04:22.689Z,102810.88
2019-05-14T18:09:29.278Z,102811.30
2019-05-14T18:14:34.775Z,102818.95
2019-05-14T18:19:40.011Z,102818.72
2019-05-14T18:24:45.453Z,102812.31
2019-05-14T18:29:51.199Z,102808.58
2019-05-14T18:34:58.177Z,102814.33
2019-05-14T18:40:03.993Z,102811.31
2019-05-14T18:45:10.144Z,102817.69
2019-05-14T18:50:16.216Z,102817.14
2019-05-14T18:55:21.670Z,102809.42
2019-05-14T19:00:29.377Z,102810.88
2019-05-14T19:05:34.565Z,102805.45
2019-05-14T19:10:39.977Z,102808.45
2019-05-14T19:15:45.377Z,102796.65
2019-05-14T19:20:50.612Z,102796.65
2019-05-14T19:25:55.893Z,102803.15
2019-05-14T19:31:01.251Z,102794.42
2019-05-14T19:36:10.926Z,102789.91
2019-05-14T19:41:20.980Z,102782.05
2019-05-14T19:46:24.755Z,102782.05
2019-05-14T19:51:30.330Z,102774.68
2019-05-14T19:56:49.523Z,102777.89
2019-05-14T20:01:42.805Z,102777.89
2019-05-14T20:06:49.346Z,102774.66
2019-05-14T20:11:54.967Z,102769.64
2019-05-14T20:17:00.307Z,102770.38
2019-05-14T20:22:05.719Z,102770.38
2019-05-14T20:27:12.371Z,102770.17
2019-05-14T20:32:19.416Z,102748.75
2019-05-14T20:37:25.338Z,102751.27
2019-05-14T20:42:30.805Z,102745.67
2019-05-14T20:47:36.064Z,102738.44
2019-05-14T20:52:41.419Z,102738.44
2019-05-14T20:57:48.771Z,102726.62
2019-05-14T21:02:53.723Z,102729.45
2019-05-14T21:07:59.237Z,102728.24
2019-05-14T21:13:04.826Z,102738.13
2019-05-14T21:18:10.076Z,102726.66
2019-05-14T21:23:15.270Z,102719.44
2019-05-14T21:28:20.574Z,102704.73
2019-05-14T21:33:25.845Z,102704.73
2019-05-14T21:38:31.388Z,102688.70
2019-05-14T21:43:38.555Z,102688.70
2019-05-14T21:48:43.557Z,102695.56
2019-05-14T21:53:48.998Z,102697.55
2019-05-14T21:58:55.215Z,102697.73
2019-05-14T22:04:00.508Z,102681.95
2019-05-14T22:09:08.710Z,102678.75
2019-05-14T22:14:14.236Z,102687.61
2019-05-14T22:19:19.785Z,102679.11
2019-05-14T22:24:25.130Z,102660.47
2019-05-14T22:29:30.311Z,102666.82
2019-05-14T22:34:38.382Z,102672.33
2019-05-14T22:39:43.741Z,102660.25
2019-05-14T22:44:50.373Z,102660.25
2019-05-14T22:49:58.984Z,102650.23
2019-05-14T22:55:02.927Z,102644.38
2019-05-14T23:00:10.594Z,102630.12
2019-05-14T23:05:19.258Z,102630.12
2019-05-14T23:10:24.636Z,102622.30
2019-05-14T23:15:31.012Z,102620.83
2019-05-14T23:20:39.105Z,102620.83
2019-05-14T23:25:43.990Z,102615.31
2019-05-14T23:30:49.247Z,102600.45
2019-05-14T23:35:55.314Z,102600.97
2019-05-14T23:41:01.116Z,102600.97
2019-05-14T23:46:06.240Z,102606.02
2019-05-14T23:51:11.897Z,102604.73
2019-05-14T23:56:19.369Z,102605.72
